Time;durP1;ratioP1;P1;durP2;ratioP2;P2;SDS_P1;SDS_P2;PMS_P1;PMS_P2;Temp;Humidity;BMP_temperature;BMP_pressure;BME280_temperature;BME280_humidity;BME280_pressure;Samples;Min_cycle;Max_cycle;Signal;HPM_P1;HPM_P2
2021/09/25 00:01:21;;;;;;;8.05;6.63;;;;;;;;;;5033210;28;20029;-56
2021/09/25 00:03:51;;;;;;;7.95;6.88;;;;;;;;;;5033846;28;20412;-57
2021/09/25 00:06:20;;;;;;;9.27;7.47;;;;;;;;;;5035574;28;20026;-57
2021/09/25 00:08:48;;;;;;;7.68;6.25;;;;;;;;;;5036863;28;20053;-57
2021/09/25 00:11:14;;;;;;;8.23;6.85;;;;;;;;;;5020132;28;20025;-57
2021/09/25 00:13:41;;;;;;;6.88;6.18;;;;;;;;;;5037326;28;20029;-57
2021/09/25 00:16:07;;;;;;;8.07;6.15;;;;;;;;;;5017306;28;20081;-58
2021/09/25 00:18:35;;;;;;;7.30;6.53;;;;;;;;;;5017213;28;20029;-55
2021/09/25 00:21:05;;;;;;;7.22;5.60;;;;;;;;;;5017152;28;20032;-55
2021/09/25 00:23:31;;;;;;;7.90;5.95;;;;;;;;;;5017215;28;20475;-58
2021/09/25 00:25:57;;;;;;;8.57;6.75;;;;;;;;;;5017402;28;20445;-57
2021/09/25 00:28:23;;;;;;;6.70;5.30;;;;;;;;;;5017014;28;20026;-58
2021/09/25 00:30:49;;;;;;;5.55;4.88;;;;;;;;;;5017025;28;20072;-57
2021/09/25 00:33:15;;;;;;;7.05;6.03;;;;;;;;;;4999870;28;20534;-56
2021/09/25 00:35:41;;;;;;;9.10;6.63;;;;;;;;;;5016854;28;20116;-56
2021/09/25 00:38:10;;;;;;;7.97;5.65;;;;;;;;;;5016458;28;20480;-56
2021/09/25 00:40:36;;;;;;;7.13;6.00;;;;;;;;;;5016784;28;20471;-55
2021/09/25 00:43:02;;;;;;;6.32;5.72;;;;;;;;;;4999765;28;20029;-56
2021/09/25 00:45:28;;;;;;;9.95;6.85;;;;;;;;;;5016762;28;20034;-56
2021/09/25 00:47:54;;;;;;;7.65;6.43;;;;;;;;;;4999072;28;20151;-57
2021/09/25 00:50:20;;;;;;;12.35;6.97;;;;;;;;;;4999105;28;20041;-58
2021/09/25 00:52:46;;;;;;;6.90;6.20;;;;;;;;;;5016586;28;20034;-57
2021/09/25 00:55:13;;;;;;;8.05;7.20;;;;;;;;;;5016592;28;20093;-57
2021/09/25 00:57:39;;;;;;;7.82;6.88;;;;;;;;;;5016162;28;20021;-57
2021/09/25 01:00:06;;;;;;;8.75;7.22;;;;;;;;;;5016928;28;20022;-56
2021/09/25 01:02:36;;;;;;;8.50;7.60;;;;;;;;;;4998891;28;20121;-57
2021/09/25 01:05:03;;;;;;;11.27;8.10;;;;;;;;;;4999557;28;20451;-54
2021/09/25 01:07:29;;;;;;;9.30;7.50;;;;;;;;;;5016052;28;20456;-55
2021/09/25 01:09:55;;;;;;;10.43;7.57;;;;;;;;;;5015978;28;20460;-57
2021/09/25 01:12:22;;;;;;;9.68;7.35;;;;;;;;;;5016695;28;20413;-56
2021/09/25 01:14:48;;;;;;;9.30;7.57;;;;;;;;;;5025932;28;20053;-55
2021/09/25 01:17:14;;;;;;;10.90;8.15;;;;;;;;;;5017748;28;20117;-55
2021/09/25 01:19:41;;;;;;;9.57;8.00;;;;;;;;;;5036491;28;20351;-55
2021/09/25 01:22:08;;;;;;;8.80;7.88;;;;;;;;;;5018720;28;20121;-56
2021/09/25 01:24:34;;;;;;;8.90;8.00;;;;;;;;;;5002113;28;20523;-56
2021/09/25 01:27:01;;;;;;;10.27;7.70;;;;;;;;;;5036099;28;20113;-57
2021/09/25 01:29:27;;;;;;;8.85;7.68;;;;;;;;;;5035722;28;20032;-56
2021/09/25 01:31:56;;;;;;;10.07;9.07;;;;;;;;;;5035632;28;20040;-53
2021/09/25 01:34:22;;;;;;;11.05;8.68;;;;;;;;;;5035702;28;20075;-57
2021/09/25 01:36:51;;;;;;;9.13;7.95;;;;;;;;;;5017542;28;20030;-57
2021/09/25 01:39:18;;;;;;;12.80;8.93;;;;;;;;;;5017952;28;20029;-56
2021/09/25 01:41:44;;;;;;;10.52;8.63;;;;;;;;;;5017396;28;20029;-53
2021/09/25 01:44:10;;;;;;;10.65;8.50;;;;;;;;;;5018222;28;20056;-57
2021/09/25 01:46:38;;;;;;;10.65;8.07;;;;;;;;;;5035678;28;20029;-56
2021/09/25 01:49:04;;;;;;;9.82;8.13;;;;;;;;;;5035288;28;20021;-55
2021/09/25 01:51:30;;;;;;;13.00;9.57;;;;;;;;;;5035276;28;20042;-57
2021/09/25 01:53:56;;;;;;;11.45;9.57;;;;;;;;;;5035231;28;20021;-57
2021/09/25 01:56:28;;;;;;;10.98;8.93;;;;;;;;;;5035220;28;20037;-57
2021/09/25 01:58:56;;;;;;;10.35;8.38;;;;;;;;;;5035379;28;20080;-57
2021/09/25 02:01:25;;;;;;;11.02;9.85;;;;;;;;;;5017271;28;20384;-57
2021/09/25 02:03:51;;;;;;;10.00;8.93;;;;;;;;;;5035372;28;20415;-57
2021/09/25 02:06:17;;;;;;;10.40;9.27;;;;;;;;;;5034985;28;20471;-56
2021/09/25 02:08:45;;;;;;;11.05;9.88;;;;;;;;;;5017743;28;20511;-57
2021/09/25 02:11:12;;;;;;;10.90;9.30;;;;;;;;;;5017605;28;20033;-56
2021/09/25 02:13:38;;;;;;;12.80;9.43;;;;;;;;;;5035184;28;20060;-57
2021/09/25 02:16:04;;;;;;;12.18;8.90;;;;;;;;;;5016829;28;20058;-56
2021/09/25 02:18:30;;;;;;;12.02;9.80;;;;;;;;;;5017512;28;20045;-57
2021/09/25 02:20:56;;;;;;;10.15;8.65;;;;;;;;;;5016996;28;20027;-56
2021/09/25 02:23:23;;;;;;;12.35;8.90;;;;;;;;;;5035291;28;20057;-57
2021/09/25 02:25:49;;;;;;;12.35;9.10;;;;;;;;;;5034604;28;20026;-57
2021/09/25 02:28:17;;;;;;;8.90;7.95;;;;;;;;;;5034430;28;20378;-56
2021/09/25 02:30:45;;;;;;;9.93;8.05;;;;;;;;;;5035302;28;20348;-54
2021/09/25 02:33:11;;;;;;;12.25;10.27;;;;;;;;;;5034417;28;20037;-57
2021/09/25 02:35:37;;;;;;;11.35;8.77;;;;;;;;;;5034413;28;20379;-57
2021/09/25 02:38:11;;;;;;;14.02;9.02;;;;;;;;;;5034285;28;20030;-57
2021/09/25 02:40:39;;;;;;;14.35;9.70;;;;;;;;;;5034689;28;20032;-56
2021/09/25 02:43:05;;;;;;;10.02;7.60;;;;;;;;;;5016736;28;20040;-57
2021/09/25 02:45:34;;;;;;;12.15;7.35;;;;;;;;;;5034257;28;20091;-57
2021/09/25 02:48:02;;;;;;;9.85;8.00;;;;;;;;;;5016560;28;20029;-55
2021/09/25 02:50:31;;;;;;;15.43;8.77;;;;;;;;;;5016125;28;20030;-56
2021/09/25 02:52:58;;;;;;;9.55;7.95;;;;;;;;;;5016968;28;20110;-56
2021/09/25 02:55:24;;;;;;;8.68;7.25;;;;;;;;;;5033785;28;20053;-56
2021/09/25 02:57:50;;;;;;;7.43;6.22;;;;;;;;;;5017221;28;20025;-55
2021/09/25 03:00:18;;;;;;;10.00;8.32;;;;;;;;;;5034868;28;20439;-56
2021/09/25 03:02:45;;;;;;;8.35;7.10;;;;;;;;;;5034405;28;20051;-57
2021/09/25 03:05:11;;;;;;;8.63;6.38;;;;;;;;;;5033710;28;20025;-55
2021/09/25 03:07:37;;;;;;;8.30;7.22;;;;;;;;;;5034235;28;20444;-54
2021/09/25 03:10:07;;;;;;;7.38;5.80;;;;;;;;;;5033649;28;20030;-57
2021/09/25 03:12:33;;;;;;;10.55;7.57;;;;;;;;;;5017152;28;20037;-57
2021/09/25 03:15:02;;;;;;;10.23;7.45;;;;;;;;;;5033591;28;20060;-57
2021/09/25 03:17:28;;;;;;;10.10;8.70;;;;;;;;;;5016113;28;20025;-56
2021/09/25 03:19:56;;;;;;;7.25;6.15;;;;;;;;;;5033890;28;20478;-56
2021/09/25 03:22:22;;;;;;;8.52;6.63;;;;;;;;;;5033688;28;20039;-57
2021/09/25 03:24:51;;;;;;;8.68;6.88;;;;;;;;;;5016196;28;20376;-55
2021/09/25 03:27:17;;;;;;;8.32;6.32;;;;;;;;;;5015557;28;20077;-57
2021/09/25 03:29:43;;;;;;;8.88;6.85;;;;;;;;;;5033583;28;20032;-57
2021/09/25 03:32:09;;;;;;;8.70;6.88;;;;;;;;;;5016083;28;20033;-57
2021/09/25 03:34:35;;;;;;;10.05;8.10;;;;;;;;;;5033614;28;20459;-56
2021/09/25 03:37:03;;;;;;;11.27;7.82;;;;;;;;;;5016384;28;20021;-57
2021/09/25 03:39:29;;;;;;;9.32;7.00;;;;;;;;;;5016176;28;20546;-56
2021/09/25 03:41:55;;;;;;;8.75;7.10;;;;;;;;;;5022653;28;20116;-56
2021/09/25 03:44:21;;;;;;;11.30;9.32;;;;;;;;;;5039733;28;20017;-57
2021/09/25 03:46:50;;;;;;;12.27;7.80;;;;;;;;;;5040078;28;20025;-56
2021/09/25 03:49:16;;;;;;;12.00;9.00;;;;;;;;;;5040074;28;20033;-57
2021/09/25 03:51:44;;;;;;;9.55;7.97;;;;;;;;;;5022028;28;20063;-56
2021/09/25 03:54:10;;;;;;;11.05;8.30;;;;;;;;;;5039794;28;20475;-56
2021/09/25 03:56:39;;;;;;;11.30;8.10;;;;;;;;;;5040591;28;20021;-56
2021/09/25 03:59:05;;;;;;;10.95;8.75;;;;;;;;;;5039751;28;20029;-56
2021/09/25 04:01:34;;;;;;;9.35;7.53;;;;;;;;;;5021855;28;20491;-57
2021/09/25 04:04:00;;;;;;;12.85;9.10;;;;;;;;;;5022434;28;20033;-57
2021/09/25 04:06:28;;;;;;;12.68;8.57;;;;;;;;;;5040497;28;20089;-56
2021/09/25 04:08:55;;;;;;;8.68;6.90;;;;;;;;;;5021860;28;20531;-56
2021/09/25 04:11:23;;;;;;;10.40;8.35;;;;;;;;;;5039808;28;20036;-56
2021/09/25 04:13:55;;;;;;;9.43;7.03;;;;;;;;;;5022079;28;20044;-56
2021/09/25 04:16:23;;;;;;;8.65;7.45;;;;;;;;;;5040441;28;20499;-56
2021/09/25 04:18:49;;;;;;;7.60;6.90;;;;;;;;;;5022655;28;20021;-57
2021/09/25 04:21:17;;;;;;;11.02;8.43;;;;;;;;;;5039572;28;20080;-56
2021/09/25 04:23:43;;;;;;;9.85;7.95;;;;;;;;;;5022645;28;20026;-56
2021/09/25 04:26:12;;;;;;;9.13;7.78;;;;;;;;;;5039818;28;20029;-57
2021/09/25 04:28:38;;;;;;;8.90;7.97;;;;;;;;;;5039766;28;20108;-56
2021/09/25 04:31:04;;;;;;;9.55;8.30;;;;;;;;;;5039701;28;20127;-57
2021/09/25 04:33:30;;;;;;;10.88;6.63;;;;;;;;;;5021595;28;20483;-57
2021/09/25 04:35:56;;;;;;;8.10;6.80;;;;;;;;;;5039935;28;20069;-56
2021/09/25 04:38:22;;;;;;;11.02;7.70;;;;;;;;;;5021749;28;20032;-54
2021/09/25 04:40:48;;;;;;;9.18;7.22;;;;;;;;;;5039571;28;20108;-56
2021/09/25 04:43:14;;;;;;;9.07;6.72;;;;;;;;;;5022492;28;20372;-56
2021/09/25 04:45:43;;;;;;;8.07;6.47;;;;;;;;;;5022386;28;20352;-55
2021/09/25 04:48:09;;;;;;;8.77;7.07;;;;;;;;;;5022120;28;20144;-57
2021/09/25 04:50:35;;;;;;;9.68;7.80;;;;;;;;;;5039805;28;20029;-56
2021/09/25 04:53:19;;;;;;;8.57;7.07;;;;;;;;;;5019401;28;20065;-56
2021/09/25 04:55:45;;;;;;;8.70;7.75;;;;;;;;;;5019576;28;20029;-57
2021/09/25 04:58:12;;;;;;;7.20;6.43;;;;;;;;;;5018676;28;20143;-56
2021/09/25 05:00:39;;;;;;;9.90;8.32;;;;;;;;;;5036296;28;20025;-57
2021/09/25 05:03:05;;;;;;;9.43;8.10;;;;;;;;;;5019279;28;20451;-56
2021/09/25 05:05:31;;;;;;;9.75;7.28;;;;;;;;;;5036543;28;20025;-56
2021/09/25 05:07:57;;;;;;;8.07;6.57;;;;;;;;;;5018451;28;20025;-56
2021/09/25 05:10:23;;;;;;;9.35;6.75;;;;;;;;;;5036346;28;20022;-56
2021/09/25 05:12:49;;;;;;;9.07;7.38;;;;;;;;;;5035755;28;20065;-57
2021/09/25 05:15:16;;;;;;;9.25;7.18;;;;;;;;;;5017931;28;20103;-57
2021/09/25 05:17:42;;;;;;;11.32;8.10;;;;;;;;;;5036472;28;20372;-56
2021/09/25 05:20:11;;;;;;;8.70;7.40;;;;;;;;;;5035969;28;20460;-57
2021/09/25 05:22:42;;;;;;;8.75;6.80;;;;;;;;;;5001741;28;20108;-55
2021/09/25 05:25:08;;;;;;;11.82;8.05;;;;;;;;;;5018472;28;20120;-57
2021/09/25 05:27:37;;;;;;;11.48;8.05;;;;;;;;;;5036629;28;20096;-55
2021/09/25 05:30:05;;;;;;;8.93;7.47;;;;;;;;;;5018335;28;20021;-56
2021/09/25 05:32:31;;;;;;;9.55;7.80;;;;;;;;;;5036037;28;20124;-55
2021/09/25 05:34:57;;;;;;;12.40;9.35;;;;;;;;;;5018513;28;20467;-54
2021/09/25 05:37:23;;;;;;;16.23;7.50;;;;;;;;;;5035317;28;20036;-56
2021/09/25 05:39:54;;;;;;;7.65;6.50;;;;;;;;;;5036118;28;20025;-56
2021/09/25 05:42:21;;;;;;;10.52;7.70;;;;;;;;;;5035784;28;20037;-57
2021/09/25 05:44:50;;;;;;;9.07;7.03;;;;;;;;;;5035516;28;20096;-56
2021/09/25 05:47:16;;;;;;;9.13;7.85;;;;;;;;;;5017243;28;20080;-57
2021/09/25 05:49:44;;;;;;;11.85;6.75;;;;;;;;;;5035384;28;20459;-55
2021/09/25 05:52:10;;;;;;;9.63;7.40;;;;;;;;;;5018470;28;20077;-56
2021/09/25 05:54:39;;;;;;;9.65;6.88;;;;;;;;;;5017259;28;20045;-55
2021/09/25 05:57:05;;;;;;;9.68;8.38;;;;;;;;;;5017505;28;20374;-57
2021/09/25 05:59:34;;;;;;;13.00;8.65;;;;;;;;;;5035386;28;20065;-56
2021/09/25 06:02:01;;;;;;;8.50;7.32;;;;;;;;;;5035691;28;20160;-56
2021/09/25 06:04:31;;;;;;;10.32;8.30;;;;;;;;;;5034548;28;20100;-57
2021/09/25 06:06:58;;;;;;;8.77;7.57;;;;;;;;;;5017563;28;20049;-57
2021/09/25 06:09:24;;;;;;;11.88;8.70;;;;;;;;;;5017546;28;20120;-57
2021/09/25 06:11:51;;;;;;;12.02;7.63;;;;;;;;;;5017430;28;20156;-57
2021/09/25 06:14:23;;;;;;;9.93;8.13;;;;;;;;;;5016805;28;20046;-57
2021/09/25 06:16:49;;;;;;;12.27;7.63;;;;;;;;;;5034942;28;20029;-58
2021/09/25 06:19:19;;;;;;;11.95;7.60;;;;;;;;;;5017306;28;20022;-58
2021/09/25 06:21:45;;;;;;;11.35;9.02;;;;;;;;;;5017407;28;20033;-57
2021/09/25 06:24:14;;;;;;;8.70;7.63;;;;;;;;;;5017121;28;20079;-56
2021/09/25 06:26:40;;;;;;;9.52;7.50;;;;;;;;;;5034581;28;20030;-56
2021/09/25 06:29:06;;;;;;;11.48;8.73;;;;;;;;;;5017002;28;20035;-57
2021/09/25 06:31:34;;;;;;;9.50;7.40;;;;;;;;;;5034331;28;20480;-57
2021/09/25 06:34:00;;;;;;;8.20;7.40;;;;;;;;;;5034914;28;20025;-56
2021/09/25 06:36:26;;;;;;;9.77;7.88;;;;;;;;;;5034330;28;20080;-56
2021/09/25 06:38:52;;;;;;;7.45;6.30;;;;;;;;;;5034393;28;20057;-57
2021/09/25 06:41:19;;;;;;;8.63;7.70;;;;;;;;;;5034146;28;20029;-57
2021/09/25 06:43:46;;;;;;;7.85;7.05;;;;;;;;;;5016761;28;20040;-57
2021/09/25 06:46:14;;;;;;;10.05;7.70;;;;;;;;;;5034240;28;20025;-57
2021/09/25 06:48:43;;;;;;;10.27;8.00;;;;;;;;;;5034526;28;20021;-57
2021/09/25 06:51:12;;;;;;;10.35;7.03;;;;;;;;;;5034166;28;20025;-58
2021/09/25 06:53:38;;;;;;;9.57;7.93;;;;;;;;;;5000195;28;20036;-57
2021/09/25 06:56:04;;;;;;;10.30;7.32;;;;;;;;;;5016177;28;20025;-58
2021/09/25 06:58:34;;;;;;;10.48;7.57;;;;;;;;;;5000435;28;20026;-55
2021/09/25 07:01:00;;;;;;;9.48;7.63;;;;;;;;;;5016259;28;20084;-58
2021/09/25 07:03:26;;;;;;;8.15;7.38;;;;;;;;;;5034817;28;20086;-59
2021/09/25 07:05:54;;;;;;;10.05;8.35;;;;;;;;;;5016109;28;20115;-57
2021/09/25 07:08:23;;;;;;;9.15;6.75;;;;;;;;;;5016977;28;20044;-57
2021/09/25 07:10:55;;;;;;;11.38;7.22;;;;;;;;;;5016145;28;20048;-57
2021/09/25 07:13:21;;;;;;;9.18;7.35;;;;;;;;;;5034695;28;20180;-58
2021/09/25 07:15:47;;;;;;;10.05;7.22;;;;;;;;;;5032683;28;20065;-58
2021/09/25 07:18:14;;;;;;;9.38;7.63;;;;;;;;;;5015929;28;20021;-58
2021/09/25 07:20:40;;;;;;;9.25;7.57;;;;;;;;;;5016026;28;20459;-58
2021/09/25 07:23:07;;;;;;;7.78;6.75;;;;;;;;;;5033713;28;20124;-58
2021/09/25 07:25:33;;;;;;;10.98;6.70;;;;;;;;;;5034596;28;20064;-57
2021/09/25 07:27:59;;;;;;;9.85;6.60;;;;;;;;;;5015800;28;20034;-58
2021/09/25 07:30:28;;;;;;;10.30;7.28;;;;;;;;;;5034366;28;20025;-57
2021/09/25 07:32:55;;;;;;;7.75;6.47;;;;;;;;;;5033962;28;20442;-56
2021/09/25 07:35:22;;;;;;;10.45;6.47;;;;;;;;;;5016256;28;20026;-54
2021/09/25 07:37:48;;;;;;;8.75;6.57;;;;;;;;;;5033868;28;20349;-53
2021/09/25 07:40:14;;;;;;;9.40;7.22;;;;;;;;;;5016478;28;20084;-56
2021/09/25 07:42:40;;;;;;;8.73;6.03;;;;;;;;;;5016355;28;20025;-55
2021/09/25 07:45:09;;;;;;;8.70;5.82;;;;;;;;;;5033409;28;20022;-53
2021/09/25 07:47:36;;;;;;;7.38;6.30;;;;;;;;;;5033462;28;20051;-55
2021/09/25 07:50:02;;;;;;;8.07;6.68;;;;;;;;;;5016244;28;20034;-55
2021/09/25 07:52:28;;;;;;;6.00;5.28;;;;;;;;;;5033309;28;20038;-56
2021/09/25 07:54:54;;;;;;;8.75;6.43;;;;;;;;;;5033065;28;20562;-56
2021/09/25 07:57:21;;;;;;;9.80;6.47;;;;;;;;;;5033307;28;20022;-56
2021/09/25 07:59:47;;;;;;;10.18;7.13;;;;;;;;;;5015693;28;20357;-58
2021/09/25 08:02:19;;;;;;;8.93;6.75;;;;;;;;;;5015419;28;20042;-57
2021/09/25 08:04:51;;;;;;;9.77;7.05;;;;;;;;;;5015504;28;20022;-57
2021/09/25 08:07:24;;;;;;;7.30;5.75;;;;;;;;;;5031274;28;20037;-57
2021/09/25 08:09:50;;;;;;;9.30;6.32;;;;;;;;;;5033268;28;20057;-57
2021/09/25 08:12:28;;;;;;;7.47;5.40;;;;;;;;;;5015972;28;20435;-57
2021/09/25 08:14:57;;;;;;;8.80;5.47;;;;;;;;;;5011912;28;20551;-57
2021/09/25 08:17:33;;;;;;;7.28;5.93;;;;;;;;;;5016229;28;20424;-57
2021/09/25 08:20:23;;;;;;;12.38;5.13;;;;;;;;;;5015432;28;20080;-57
2021/09/25 08:23:00;;;;;;;;;;;;;;;;;;;;;
2021/09/25 08:25:26;;;;;;;6.75;4.78;;;;;;;;;;5033255;28;19905;-57
2021/09/25 08:27:52;;;;;;;5.10;4.18;;;;;;;;;;5035701;28;20132;-57
2021/09/25 08:30:19;;;;;;;7.00;5.00;;;;;;;;;;5036831;28;20037;-58
2021/09/25 08:32:46;;;;;;;5.85;5.15;;;;;;;;;;5019345;28;20036;-58
2021/09/25 08:35:12;;;;;;;6.60;5.40;;;;;;;;;;5036599;28;20040;-58
2021/09/25 08:37:39;;;;;;;10.68;6.07;;;;;;;;;;5036630;28;20419;-57
2021/09/25 08:40:07;;;;;;;7.32;6.47;;;;;;;;;;5036820;28;20080;-54
2021/09/25 08:42:33;;;;;;;7.18;5.30;;;;;;;;;;5019502;28;20033;-58
2021/09/25 08:44:59;;;;;;;9.88;6.18;;;;;;;;;;5018654;28;20033;-58
2021/09/25 08:47:42;;;;;;;7.05;5.90;;;;;;;;;;5036320;28;20463;-59
2021/09/25 08:50:09;;;;;;;7.78;5.30;;;;;;;;;;5036347;28;20026;-58
2021/09/25 08:52:35;;;;;;;7.10;6.00;;;;;;;;;;5036530;28;20034;-58
2021/09/25 08:55:07;;;;;;;10.40;6.30;;;;;;;;;;5035997;28;20472;-59
2021/09/25 08:57:33;;;;;;;7.15;5.88;;;;;;;;;;5018989;28;20535;-60
2021/09/25 09:00:18;;;;;;;7.07;5.18;;;;;;;;;;5036430;28;20029;-60
2021/09/25 09:02:44;;;;;;;8.63;5.43;;;;;;;;;;5019354;28;20412;-60
2021/09/25 09:05:10;;;;;;;7.75;5.38;;;;;;;;;;5036512;28;20053;-60
2021/09/25 09:07:36;;;;;;;5.55;4.55;;;;;;;;;;5035809;28;20109;-60
2021/09/25 09:10:02;;;;;;;5.97;4.63;;;;;;;;;;5018229;28;20480;-60
2021/09/25 09:12:31;;;;;;;5.90;3.95;;;;;;;;;;5036777;28;20463;-60
2021/09/25 09:14:57;;;;;;;5.63;4.55;;;;;;;;;;5036042;28;20095;-60
2021/09/25 09:17:28;;;;;;;5.22;4.72;;;;;;;;;;5002395;28;20021;-60
2021/09/25 09:19:55;;;;;;;6.40;5.47;;;;;;;;;;5035927;28;20476;-60
2021/09/25 09:22:23;;;;;;;6.78;4.63;;;;;;;;;;5036481;28;20483;-60
2021/09/25 09:24:51;;;;;;;6.95;4.32;;;;;;;;;;5018004;28;20025;-60
2021/09/25 09:27:19;;;;;;;6.68;5.05;;;;;;;;;;5017869;28;20053;-60
2021/09/25 09:29:45;;;;;;;5.95;4.43;;;;;;;;;;5035713;28;20514;-60
2021/09/25 09:32:14;;;;;;;7.70;5.70;;;;;;;;;;5035568;28;20036;-60
2021/09/25 09:34:42;;;;;;;5.90;4.88;;;;;;;;;;5035651;28;20037;-60
2021/09/25 09:37:12;;;;;;;7.22;5.20;;;;;;;;;;5035521;28;20022;-60
2021/09/25 09:39:38;;;;;;;5.13;4.60;;;;;;;;;;5017298;28;20080;-60
2021/09/25 09:42:03;;;;;;;5.93;5.05;;;;;;;;;;5017541;28;20033;-60
2021/09/25 09:44:32;;;;;;;9.18;5.30;;;;;;;;;;5035458;28;20037;-60
2021/09/25 09:47:04;;;;;;;5.28;4.70;;;;;;;;;;5034897;28;20049;-60
2021/09/25 09:49:38;;;;;;;6.53;4.88;;;;;;;;;;5036306;28;20351;-61
2021/09/25 09:52:08;;;;;;;7.05;5.05;;;;;;;;;;5017701;28;20080;-60
2021/09/25 09:54:37;;;;;;;7.55;5.50;;;;;;;;;;5034887;28;20113;-60
2021/09/25 09:57:07;;;;;;;7.68;4.72;;;;;;;;;;5035004;28;20120;-60
2021/09/25 09:59:33;;;;;;;7.22;5.10;;;;;;;;;;5035099;28;20100;-60
2021/09/25 10:01:59;;;;;;;5.85;4.15;;;;;;;;;;5017393;28;20025;-60
2021/09/25 10:04:25;;;;;;;4.97;4.40;;;;;;;;;;5016999;28;20072;-60
2021/09/25 10:06:52;;;;;;;4.75;3.50;;;;;;;;;;5034863;28;20040;-60
2021/09/25 10:09:19;;;;;;;4.78;4.13;;;;;;;;;;5035371;28;20032;-60
2021/09/25 10:11:49;;;;;;;5.97;4.45;;;;;;;;;;5016924;28;20068;-60
2021/09/25 10:14:17;;;;;;;5.30;4.47;;;;;;;;;;5035097;28;20053;-60
2021/09/25 10:16:43;;;;;;;4.65;3.15;;;;;;;;;;5017574;28;20033;-60
2021/09/25 10:19:11;;;;;;;5.32;3.90;;;;;;;;;;5034778;28;20032;-60
2021/09/25 10:21:37;;;;;;;8.48;3.97;;;;;;;;;;5034860;28;20367;-60
2021/09/25 10:24:08;;;;;;;4.70;3.95;;;;;;;;;;5035106;28;20053;-60
2021/09/25 10:26:35;;;;;;;5.03;3.70;;;;;;;;;;5034679;28;20029;-60
2021/09/25 10:29:04;;;;;;;6.63;5.07;;;;;;;;;;5034686;28;20037;-60
2021/09/25 10:31:30;;;;;;;4.10;3.30;;;;;;;;;;5034774;28;20048;-60
2021/09/25 10:34:07;;;;;;;4.53;3.63;;;;;;;;;;5034919;28;20336;-60
2021/09/25 10:36:40;;;;;;;4.60;3.70;;;;;;;;;;5034292;28;20025;-60
2021/09/25 10:39:27;;;;;;;5.25;3.42;;;;;;;;;;5034237;28;20029;-60
2021/09/25 10:42:00;;;;;;;5.53;3.42;;;;;;;;;;5018003;28;20479;-60
2021/09/25 10:44:26;;;;;;;6.63;2.90;;;;;;;;;;5034263;28;20022;-60
2021/09/25 10:46:52;;;;;;;5.90;4.45;;;;;;;;;;5034307;28;20028;-60
2021/09/25 10:49:18;;;;;;;5.10;3.42;;;;;;;;;;5034232;28;20037;-60
2021/09/25 10:51:46;;;;;;;4.60;3.70;;;;;;;;;;5034133;28;20029;-60
2021/09/25 10:54:13;;;;;;;5.20;3.50;;;;;;;;;;5016198;28;20029;-60
2021/09/25 10:56:47;;;;;;;5.00;3.50;;;;;;;;;;5033984;28;20415;-60
2021/09/25 10:59:13;;;;;;;5.97;3.58;;;;;;;;;;5034242;28;20032;-60
2021/09/25 11:01:40;;;;;;;4.90;3.92;;;;;;;;;;5034022;28;20100;-60
2021/09/25 11:04:12;;;;;;;6.90;3.42;;;;;;;;;;5033980;28;20056;-60
2021/09/25 11:06:45;;;;;;;4.32;3.70;;;;;;;;;;5034224;28;20041;-60
2021/09/25 11:09:34;;;;;;;3.92;3.08;;;;;;;;;;5034154;28;20087;-60
2021/09/25 11:12:03;;;;;;;4.40;3.40;;;;;;;;;;5033878;28;20061;-60
2021/09/25 11:14:33;;;;;;;6.00;3.13;;;;;;;;;;5033556;28;20046;-58
2021/09/25 11:17:10;;;;;;;4.18;3.42;;;;;;;;;;5033863;28;20235;-58
2021/09/25 11:19:37;;;;;;;7.90;3.28;;;;;;;;;;5034379;28;20395;-58
2021/09/25 11:22:03;;;;;;;4.28;3.20;;;;;;;;;;5016814;28;20040;-58
2021/09/25 11:24:31;;;;;;;5.05;2.58;;;;;;;;;;5033790;28;20021;-58
2021/09/25 11:26:57;;;;;;;4.50;3.20;;;;;;;;;;5033737;28;20108;-60
2021/09/25 11:29:23;;;;;;;4.70;3.33;;;;;;;;;;5015958;28;20068;-57
2021/09/25 11:31:50;;;;;;;4.22;3.38;;;;;;;;;;5033230;28;20575;-58
2021/09/25 11:34:27;;;;;;;4.63;3.47;;;;;;;;;;5034257;28;20061;-58
2021/09/25 11:36:53;;;;;;;3.88;2.83;;;;;;;;;;5033633;28;20372;-58
2021/09/25 11:39:37;;;;;;;5.45;2.97;;;;;;;;;;5033402;28;20418;-59
2021/09/25 11:42:36;;;;;;;3.53;2.63;;;;;;;;;;5034007;28;20032;-58
2021/09/25 11:45:04;;;;;;;5.57;2.33;;;;;;;;;;4990218;28;20045;-60
2021/09/25 11:47:32;;;;;;;4.10;2.83;;;;;;;;;;5033807;28;20510;-60
2021/09/25 11:50:00;;;;;;;4.45;3.08;;;;;;;;;;5033761;28;20519;-60
2021/09/25 11:52:26;;;;;;;6.20;4.00;;;;;;;;;;5016530;28;20452;-60
2021/09/25 11:54:52;;;;;;;4.57;3.00;;;;;;;;;;5015722;28;20423;-60
2021/09/25 11:57:20;;;;;;;4.00;3.20;;;;;;;;;;5016181;28;20464;-60
2021/09/25 11:59:46;;;;;;;5.35;3.83;;;;;;;;;;5015553;28;20065;-60
2021/09/25 12:02:32;;;;;;;3.63;2.83;;;;;;;;;;5018740;28;20026;-60
2021/09/25 12:04:58;;;;;;;4.55;3.05;;;;;;;;;;5037304;28;20025;-60
2021/09/25 12:07:38;;;;;;;3.90;2.88;;;;;;;;;;5019758;28;20027;-60
2021/09/25 12:10:04;;;;;;;4.43;3.17;;;;;;;;;;5037811;28;20025;-60
2021/09/25 12:12:30;;;;;;;5.72;2.97;;;;;;;;;;5020124;28;20025;-60
2021/09/25 12:14:56;;;;;;;3.35;2.78;;;;;;;;;;5019360;28;20383;-60
2021/09/25 12:17:22;;;;;;;3.30;2.30;;;;;;;;;;5036997;28;20467;-60
2021/09/25 12:19:48;;;;;;;3.97;3.00;;;;;;;;;;5037112;28;20026;-60
2021/09/25 12:22:18;;;;;;;4.07;3.10;;;;;;;;;;5037525;28;20076;-60
2021/09/25 12:24:44;;;;;;;3.78;2.17;;;;;;;;;;5037867;28;20048;-60
2021/09/25 12:27:10;;;;;;;5.65;3.05;;;;;;;;;;5019117;28;20468;-58
2021/09/25 12:29:36;;;;;;;3.67;2.60;;;;;;;;;;5036821;28;20049;-58
2021/09/25 12:32:03;;;;;;;6.75;3.08;;;;;;;;;;5035365;28;20041;-58
2021/09/25 12:34:29;;;;;;;5.25;3.30;;;;;;;;;;5037090;28;20476;-57
2021/09/25 12:36:57;;;;;;;3.38;2.40;;;;;;;;;;5036544;28;20026;-58
2021/09/25 12:39:28;;;;;;;4.03;2.83;;;;;;;;;;5036830;28;20033;-58
2021/09/25 12:42:15;;;;;;;;;;;;;;;;;;;;;
2021/09/25 12:44:42;;;;;;;3.58;2.30;;;;;;;;;;5028050;28;20037;-58
2021/09/25 12:47:11;;;;;;;4.68;2.42;;;;;;;;;;5036273;28;20574;-58
2021/09/25 12:49:37;;;;;;;3.75;3.00;;;;;;;;;;5036110;28;20025;-59
2021/09/25 12:52:09;;;;;;;3.10;2.35;;;;;;;;;;5019281;28;20036;-59
2021/09/25 12:57:42;;;;;;;3.97;2.30;;;;;;;;;;5019561;28;20033;-59
2021/09/25 13:00:09;;;;;;;3.70;2.78;;;;;;;;;;5036045;28;20026;-60
2021/09/25 13:02:38;;;;;;;4.75;3.05;;;;;;;;;;5037234;28;20026;-59
2021/09/25 13:05:08;;;;;;;3.78;2.28;;;;;;;;;;5036027;28;20021;-59
2021/09/25 13:07:34;;;;;;;;;;;;;;;;;;5018596;28;20029;-59
2021/09/25 13:10:03;;;;;;;3.28;2.03;;;;;;;;;;5036551;28;19916;-59
2021/09/25 13:12:42;;;;;;;5.30;2.28;;;;;;;;;;5035342;28;20034;-59
2021/09/25 13:15:12;;;;;;;3.05;1.70;;;;;;;;;;5035911;28;20057;-59
2021/09/25 13:17:39;;;;;;;3.85;2.50;;;;;;;;;;5036041;28;20029;-59
2021/09/25 13:20:06;;;;;;;3.55;1.80;;;;;;;;;;5036446;28;20017;-59
2021/09/25 13:22:33;;;;;;;2.60;2.08;;;;;;;;;;5036366;28;20033;-59
2021/09/25 13:24:59;;;;;;;3.05;1.90;;;;;;;;;;5036056;28;20061;-59
2021/09/25 13:27:26;;;;;;;3.15;1.95;;;;;;;;;;5035922;28;20028;-59
2021/09/25 13:29:53;;;;;;;3.95;1.38;;;;;;;;;;5035803;28;20025;-59
2021/09/25 13:32:19;;;;;;;2.60;1.63;;;;;;;;;;5018285;28;20030;-59
2021/09/25 13:34:45;;;;;;;4.63;2.03;;;;;;;;;;5035896;28;20021;-59
2021/09/25 13:37:11;;;;;;;2.75;1.88;;;;;;;;;;5035376;28;20475;-59
2021/09/25 13:39:37;;;;;;;3.22;2.03;;;;;;;;;;5035708;28;20101;-60
2021/09/25 13:42:04;;;;;;;2.53;1.48;;;;;;;;;;5035954;28;20036;-60
2021/09/25 13:44:46;;;;;;;;;;;;;;;;;;;;;
2021/09/25 13:47:12;;;;;;;2.58;1.60;;;;;;;;;;5036228;28;20033;-60
2021/09/25 13:49:39;;;;;;;4.50;2.20;;;;;;;;;;5035128;28;20542;-60
2021/09/25 13:52:05;;;;;;;3.03;1.63;;;;;;;;;;5035811;28;20033;-60
2021/09/25 13:54:32;;;;;;;2.88;1.75;;;;;;;;;;5035622;28;20482;-60
2021/09/25 13:56:58;;;;;;;3.05;1.98;;;;;;;;;;5035837;28;20021;-60
2021/09/25 13:59:23;;;;;;;2.53;1.63;;;;;;;;;;5034166;28;20541;-60
2021/09/25 14:01:51;;;;;;;2.60;1.60;;;;;;;;;;5035270;28;20030;-60
2021/09/25 14:04:18;;;;;;;2.70;1.80;;;;;;;;;;5035666;28;20104;-60
2021/09/25 14:06:44;;;;;;;2.78;1.60;;;;;;;;;;5035008;28;20025;-60
2021/09/25 14:09:10;;;;;;;3.25;1.85;;;;;;;;;;5018323;28;20029;-60
2021/09/25 14:11:36;;;;;;;2.97;1.90;;;;;;;;;;5017376;28;20425;-60
2021/09/25 14:14:02;;;;;;;3.33;2.03;;;;;;;;;;5017522;28;20047;-60
2021/09/25 14:16:30;;;;;;;2.97;1.70;;;;;;;;;;5035207;28;20045;-60
2021/09/25 14:18:58;;;;;;;3.08;1.60;;;;;;;;;;5035605;28;20033;-60
2021/09/25 14:21:24;;;;;;;2.47;1.45;;;;;;;;;;5035175;28;20025;-60
2021/09/25 14:23:51;;;;;;;3.53;1.80;;;;;;;;;;5034545;28;20132;-60
2021/09/25 14:26:17;;;;;;;2.90;1.70;;;;;;;;;;5034812;28;20057;-60
2021/09/25 14:28:43;;;;;;;2.30;1.30;;;;;;;;;;5034369;28;20103;-60
2021/09/25 14:31:09;;;;;;;2.55;1.50;;;;;;;;;;5033824;28;20031;-60
2021/09/25 14:33:37;;;;;;;3.33;1.67;;;;;;;;;;5034930;28;20344;-60
2021/09/25 14:36:03;;;;;;;2.80;2.00;;;;;;;;;;5035210;28;20360;-60
2021/09/25 14:38:29;;;;;;;3.25;2.38;;;;;;;;;;5016948;28;20543;-60
2021/09/25 14:40:55;;;;;;;3.00;1.88;;;;;;;;;;5034596;28;20391;-60
2021/09/25 14:43:22;;;;;;;4.05;2.10;;;;;;;;;;5035147;28;20029;-60
2021/09/25 14:45:50;;;;;;;2.33;1.52;;;;;;;;;;5016743;28;20036;-60
2021/09/25 14:48:16;;;;;;;3.22;2.22;;;;;;;;;;5034499;28;20563;-60
2021/09/25 14:50:44;;;;;;;5.47;2.20;;;;;;;;;;5016644;28;20033;-60